sensor_id;sensor_type;location;lat;lon;timestamp;P1;durP1;ratioP1;P2;durP2;ratioP2
64643;SDS011;51056;50.330;7.914;2023-02-10T00:00:52;22.90;;;15.80;;
64643;SDS011;51056;50.330;7.914;2023-02-10T00:03:56;27.17;;;16.75;;
64643;SDS011;51056;50.330;7.914;2023-02-10T00:07:00;28.50;;;16.77;;
64643;SDS011;51056;50.330;7.914;2023-02-10T00:10:03;24.77;;;15.68;;
64643;SDS011;51056;50.330;7.914;2023-02-10T00:13:06;24.55;;;16.33;;
64643;SDS011;51056;50.330;7.914;2023-02-10T00:16:14;25.48;;;17.40;;
64643;SDS011;51056;50.330;7.914;2023-02-10T00:19:22;24.75;;;17.27;;
64643;SDS011;51056;50.330;7.914;2023-02-10T00:22:27;23.63;;;16.15;;
64643;SDS011;51056;50.330;7.914;2023-02-10T00:25:30;29.13;;;16.30;;
64643;SDS011;51056;50.330;7.914;2023-02-10T00:28:33;25.70;;;17.30;;
64643;SDS011;51056;50.330;7.914;2023-02-10T00:31:37;22.48;;;15.40;;
64643;SDS011;51056;50.330;7.914;2023-02-10T00:34:42;27.17;;;17.40;;
64643;SDS011;51056;50.330;7.914;2023-02-10T00:40:50;24.02;;;16.10;;
64643;SDS011;51056;50.330;7.914;2023-02-10T00:43:54;25.85;;;17.08;;
64643;SDS011;51056;50.330;7.914;2023-02-10T00:46:57;35.38;;;19.40;;
64643;SDS011;51056;50.330;7.914;2023-02-10T00:50:02;26.95;;;17.17;;
64643;SDS011;51056;50.330;7.914;2023-02-10T00:53:06;26.80;;;17.75;;
64643;SDS011;51056;50.330;7.914;2023-02-10T00:56:10;29.08;;;18.90;;
64643;SDS011;51056;50.330;7.914;2023-02-10T00:59:14;30.77;;;19.67;;
64643;SDS011;51056;50.330;7.914;2023-02-10T01:02:18;38.75;;;25.27;;
64643;SDS011;51056;50.330;7.914;2023-02-10T01:05:21;41.53;;;24.90;;
64643;SDS011;51056;50.330;7.914;2023-02-10T01:08:32;42.53;;;25.33;;
64643;SDS011;51056;50.330;7.914;2023-02-10T01:11:36;33.67;;;21.13;;
64643;SDS011;51056;50.330;7.914;2023-02-10T01:14:40;30.00;;;19.10;;
64643;SDS011;51056;50.330;7.914;2023-02-10T01:20:48;31.08;;;19.30;;
64643;SDS011;51056;50.330;7.914;2023-02-10T01:23:51;31.88;;;20.80;;
64643;SDS011;51056;50.330;7.914;2023-02-10T01:26:54;31.25;;;20.52;;
64643;SDS011;51056;50.330;7.914;2023-02-10T01:29:58;29.63;;;18.60;;
64643;SDS011;51056;50.330;7.914;2023-02-10T01:33:01;25.58;;;17.73;;
64643;SDS011;51056;50.330;7.914;2023-02-10T01:36:08;31.50;;;19.42;;
64643;SDS011;51056;50.330;7.914;2023-02-10T01:39:13;34.25;;;23.45;;
64643;SDS011;51056;50.330;7.914;2023-02-10T01:42:19;35.65;;;23.27;;
64643;SDS011;51056;50.330;7.914;2023-02-10T01:45:27;30.85;;;21.98;;
64643;SDS011;51056;50.330;7.914;2023-02-10T01:48:30;30.60;;;19.63;;
64643;SDS011;51056;50.330;7.914;2023-02-10T01:51:38;25.45;;;17.92;;
64643;SDS011;51056;50.330;7.914;2023-02-10T01:54:47;28.02;;;18.45;;
64643;SDS011;51056;50.330;7.914;2023-02-10T01:57:55;27.27;;;19.55;;
64643;SDS011;51056;50.330;7.914;2023-02-10T02:00:58;25.75;;;17.95;;
64643;SDS011;51056;50.330;7.914;2023-02-10T02:04:02;29.55;;;18.70;;
64643;SDS011;51056;50.330;7.914;2023-02-10T02:07:06;25.15;;;17.30;;
64643;SDS011;51056;50.330;7.914;2023-02-10T02:10:10;28.83;;;19.52;;
64643;SDS011;51056;50.330;7.914;2023-02-10T02:13:20;32.33;;;22.25;;
64643;SDS011;51056;50.330;7.914;2023-02-10T02:32:47;32.67;;;18.98;;
64643;SDS011;51056;50.330;7.914;2023-02-10T02:36:00;24.48;;;16.52;;
64643;SDS011;51056;50.330;7.914;2023-02-10T02:39:07;27.65;;;19.30;;
64643;SDS011;51056;50.330;7.914;2023-02-10T02:45:21;31.42;;;19.23;;
64643;SDS011;51056;50.330;7.914;2023-02-10T02:48:40;28.23;;;18.05;;
64643;SDS011;51056;50.330;7.914;2023-02-10T02:52:05;26.52;;;17.17;;
64643;SDS011;51056;50.330;7.914;2023-02-10T02:55:18;23.98;;;17.25;;
64643;SDS011;51056;50.330;7.914;2023-02-10T03:01:51;28.13;;;18.60;;
64643;SDS011;51056;50.330;7.914;2023-02-10T03:05:00;27.17;;;17.55;;
64643;SDS011;51056;50.330;7.914;2023-02-10T03:08:03;24.00;;;17.25;;
64643;SDS011;51056;50.330;7.914;2023-02-10T03:11:07;27.15;;;17.10;;
64643;SDS011;51056;50.330;7.914;2023-02-10T03:14:10;28.80;;;18.83;;
64643;SDS011;51056;50.330;7.914;2023-02-10T03:17:13;26.25;;;17.58;;
64643;SDS011;51056;50.330;7.914;2023-02-10T03:20:17;29.30;;;19.17;;
64643;SDS011;51056;50.330;7.914;2023-02-10T03:23:20;29.90;;;17.52;;
64643;SDS011;51056;50.330;7.914;2023-02-10T03:26:23;26.10;;;17.60;;
64643;SDS011;51056;50.330;7.914;2023-02-10T03:29:27;28.88;;;17.92;;
64643;SDS011;51056;50.330;7.914;2023-02-10T03:32:30;27.08;;;18.55;;
64643;SDS011;51056;50.330;7.914;2023-02-10T03:35:36;27.00;;;16.92;;
64643;SDS011;51056;50.330;7.914;2023-02-10T03:38:40;25.52;;;17.48;;
64643;SDS011;51056;50.330;7.914;2023-02-10T03:41:44;22.65;;;16.98;;
64643;SDS011;51056;50.330;7.914;2023-02-10T03:44:47;25.48;;;18.30;;
64643;SDS011;51056;50.330;7.914;2023-02-10T03:47:51;24.95;;;17.83;;
64643;SDS011;51056;50.330;7.914;2023-02-10T03:50:54;28.90;;;18.38;;
64643;SDS011;51056;50.330;7.914;2023-02-10T03:57:35;25.25;;;18.45;;
64643;SDS011;51056;50.330;7.914;2023-02-10T04:01:46;25.88;;;17.88;;
64643;SDS011;51056;50.330;7.914;2023-02-10T04:04:49;24.73;;;18.40;;
64643;SDS011;51056;50.330;7.914;2023-02-10T04:07:52;26.20;;;16.95;;
64643;SDS011;51056;50.330;7.914;2023-02-10T04:10:56;29.58;;;19.27;;
64643;SDS011;51056;50.330;7.914;2023-02-10T04:13:59;27.58;;;18.85;;
64643;SDS011;51056;50.330;7.914;2023-02-10T04:17:02;25.85;;;18.58;;
64643;SDS011;51056;50.330;7.914;2023-02-10T04:20:06;26.48;;;17.92;;
64643;SDS011;51056;50.330;7.914;2023-02-10T04:26:13;28.13;;;18.02;;
64643;SDS011;51056;50.330;7.914;2023-02-10T04:29:16;25.25;;;18.17;;
64643;SDS011;51056;50.330;7.914;2023-02-10T04:32:19;24.65;;;17.30;;
64643;SDS011;51056;50.330;7.914;2023-02-10T04:35:23;28.08;;;18.10;;
64643;SDS011;51056;50.330;7.914;2023-02-10T04:38:26;25.30;;;19.45;;
64643;SDS011;51056;50.330;7.914;2023-02-10T04:41:29;28.00;;;18.13;;
64643;SDS011;51056;50.330;7.914;2023-02-10T04:44:33;25.38;;;18.13;;
64643;SDS011;51056;50.330;7.914;2023-02-10T04:47:36;28.00;;;19.70;;
64643;SDS011;51056;50.330;7.914;2023-02-10T04:50:40;27.45;;;17.88;;
64643;SDS011;51056;50.330;7.914;2023-02-10T04:53:44;26.02;;;17.77;;
64643;SDS011;51056;50.330;7.914;2023-02-10T04:56:47;30.63;;;19.90;;
64643;SDS011;51056;50.330;7.914;2023-02-10T04:59:50;24.80;;;18.55;;
64643;SDS011;51056;50.330;7.914;2023-02-10T05:02:54;27.63;;;18.88;;
64643;SDS011;51056;50.330;7.914;2023-02-10T05:05:57;25.60;;;18.05;;
64643;SDS011;51056;50.330;7.914;2023-02-10T05:09:00;27.45;;;19.10;;
64643;SDS011;51056;50.330;7.914;2023-02-10T05:12:03;29.67;;;18.58;;
64643;SDS011;51056;50.330;7.914;2023-02-10T05:18:11;25.30;;;19.20;;
64643;SDS011;51056;50.330;7.914;2023-02-10T05:21:14;29.35;;;19.40;;
64643;SDS011;51056;50.330;7.914;2023-02-10T05:24:17;30.35;;;19.35;;
64643;SDS011;51056;50.330;7.914;2023-02-10T05:27:20;28.70;;;19.15;;
64643;SDS011;51056;50.330;7.914;2023-02-10T05:30:24;26.77;;;19.20;;
64643;SDS011;51056;50.330;7.914;2023-02-10T05:33:27;26.55;;;18.92;;
64643;SDS011;51056;50.330;7.914;2023-02-10T05:36:31;28.52;;;19.23;;
64643;SDS011;51056;50.330;7.914;2023-02-10T05:39:34;25.05;;;17.90;;
64643;SDS011;51056;50.330;7.914;2023-02-10T05:42:37;30.02;;;18.58;;
64643;SDS011;51056;50.330;7.914;2023-02-10T05:45:40;24.40;;;16.88;;
64643;SDS011;51056;50.330;7.914;2023-02-10T05:48:44;26.52;;;18.25;;
64643;SDS011;51056;50.330;7.914;2023-02-10T05:51:48;27.85;;;17.55;;
64643;SDS011;51056;50.330;7.914;2023-02-10T05:54:51;26.33;;;19.05;;
64643;SDS011;51056;50.330;7.914;2023-02-10T05:57:55;26.30;;;18.60;;
64643;SDS011;51056;50.330;7.914;2023-02-10T06:00:58;25.48;;;18.27;;
64643;SDS011;51056;50.330;7.914;2023-02-10T06:04:02;28.23;;;19.05;;
64643;SDS011;51056;50.330;7.914;2023-02-10T06:10:59;26.48;;;18.75;;
64643;SDS011;51056;50.330;7.914;2023-02-10T06:14:03;27.50;;;19.58;;
64643;SDS011;51056;50.330;7.914;2023-02-10T06:17:08;27.20;;;18.70;;
64643;SDS011;51056;50.330;7.914;2023-02-10T06:20:11;27.63;;;20.35;;
64643;SDS011;51056;50.330;7.914;2023-02-10T06:23:15;30.88;;;21.55;;
64643;SDS011;51056;50.330;7.914;2023-02-10T06:26:18;29.92;;;20.30;;
64643;SDS011;51056;50.330;7.914;2023-02-10T06:32:25;32.83;;;18.77;;
64643;SDS011;51056;50.330;7.914;2023-02-10T06:35:28;30.73;;;21.05;;
64643;SDS011;51056;50.330;7.914;2023-02-10T06:38:34;28.63;;;20.00;;
64643;SDS011;51056;50.330;7.914;2023-02-10T06:41:38;28.98;;;20.40;;
64643;SDS011;51056;50.330;7.914;2023-02-10T06:44:42;32.10;;;21.55;;
64643;SDS011;51056;50.330;7.914;2023-02-10T06:47:45;27.65;;;19.88;;
64643;SDS011;51056;50.330;7.914;2023-02-10T06:50:49;28.58;;;21.30;;
64643;SDS011;51056;50.330;7.914;2023-02-10T06:53:52;29.08;;;21.23;;
64643;SDS011;51056;50.330;7.914;2023-02-10T06:56:55;32.50;;;19.92;;
64643;SDS011;51056;50.330;7.914;2023-02-10T06:59:59;31.15;;;21.60;;
64643;SDS011;51056;50.330;7.914;2023-02-10T07:03:05;27.45;;;18.92;;
64643;SDS011;51056;50.330;7.914;2023-02-10T07:09:36;32.88;;;20.50;;
64643;SDS011;51056;50.330;7.914;2023-02-10T07:12:45;28.70;;;20.70;;
64643;SDS011;51056;50.330;7.914;2023-02-10T07:15:51;51.33;;;34.42;;
64643;SDS011;51056;50.330;7.914;2023-02-10T07:18:54;34.13;;;25.50;;
64643;SDS011;51056;50.330;7.914;2023-02-10T07:21:58;31.45;;;21.92;;
64643;SDS011;51056;50.330;7.914;2023-02-10T07:25:01;31.58;;;22.70;;
64643;SDS011;51056;50.330;7.914;2023-02-10T07:28:04;28.15;;;20.85;;
64643;SDS011;51056;50.330;7.914;2023-02-10T07:31:12;27.50;;;19.92;;
64643;SDS011;51056;50.330;7.914;2023-02-10T07:34:16;30.77;;;21.83;;
64643;SDS011;51056;50.330;7.914;2023-02-10T07:37:22;44.58;;;30.30;;
64643;SDS011;51056;50.330;7.914;2023-02-10T07:40:25;58.63;;;35.90;;
64643;SDS011;51056;50.330;7.914;2023-02-10T07:43:31;38.42;;;25.40;;
64643;SDS011;51056;50.330;7.914;2023-02-10T07:46:41;37.15;;;24.50;;
64643;SDS011;51056;50.330;7.914;2023-02-10T07:49:44;39.08;;;26.40;;
64643;SDS011;51056;50.330;7.914;2023-02-10T07:52:47;40.60;;;26.90;;
64643;SDS011;51056;50.330;7.914;2023-02-10T07:55:51;34.63;;;24.25;;
64643;SDS011;51056;50.330;7.914;2023-02-10T07:58:55;86.18;;;50.83;;
64643;SDS011;51056;50.330;7.914;2023-02-10T08:01:59;82.22;;;51.13;;
64643;SDS011;51056;50.330;7.914;2023-02-10T08:05:02;58.50;;;40.45;;
64643;SDS011;51056;50.330;7.914;2023-02-10T08:08:05;50.17;;;31.50;;
64643;SDS011;51056;50.330;7.914;2023-02-10T08:11:09;55.70;;;38.35;;
64643;SDS011;51056;50.330;7.914;2023-02-10T08:14:12;60.17;;;40.65;;
64643;SDS011;51056;50.330;7.914;2023-02-10T08:17:15;47.35;;;32.58;;
64643;SDS011;51056;50.330;7.914;2023-02-10T08:20:19;77.80;;;51.83;;
64643;SDS011;51056;50.330;7.914;2023-02-10T08:23:22;41.38;;;29.08;;
64643;SDS011;51056;50.330;7.914;2023-02-10T08:26:25;38.42;;;27.75;;
64643;SDS011;51056;50.330;7.914;2023-02-10T08:29:28;39.00;;;26.02;;
64643;SDS011;51056;50.330;7.914;2023-02-10T08:32:32;32.75;;;23.15;;
64643;SDS011;51056;50.330;7.914;2023-02-10T08:35:36;34.83;;;25.05;;
64643;SDS011;51056;50.330;7.914;2023-02-10T08:38:40;31.60;;;23.02;;
64643;SDS011;51056;50.330;7.914;2023-02-10T08:41:43;36.55;;;24.92;;
64643;SDS011;51056;50.330;7.914;2023-02-10T08:44:47;37.03;;;24.75;;
64643;SDS011;51056;50.330;7.914;2023-02-10T08:47:50;36.55;;;26.52;;
64643;SDS011;51056;50.330;7.914;2023-02-10T08:50:54;33.72;;;24.10;;
64643;SDS011;51056;50.330;7.914;2023-02-10T08:53:57;32.42;;;22.83;;
64643;SDS011;51056;50.330;7.914;2023-02-10T08:57:02;30.48;;;22.75;;
64643;SDS011;51056;50.330;7.914;2023-02-10T09:00:05;31.90;;;23.33;;
64643;SDS011;51056;50.330;7.914;2023-02-10T09:03:09;33.40;;;24.00;;
64643;SDS011;51056;50.330;7.914;2023-02-10T09:06:16;26.88;;;21.77;;
64643;SDS011;51056;50.330;7.914;2023-02-10T09:09:31;32.92;;;23.00;;
64643;SDS011;51056;50.330;7.914;2023-02-10T09:12:34;31.20;;;22.88;;
64643;SDS011;51056;50.330;7.914;2023-02-10T09:15:38;33.72;;;23.70;;
64643;SDS011;51056;50.330;7.914;2023-02-10T09:18:42;39.83;;;26.40;;
64643;SDS011;51056;50.330;7.914;2023-02-10T09:21:49;31.52;;;24.23;;
64643;SDS011;51056;50.330;7.914;2023-02-10T09:24:52;33.60;;;24.38;;
64643;SDS011;51056;50.330;7.914;2023-02-10T09:27:56;31.08;;;22.83;;
64643;SDS011;51056;50.330;7.914;2023-02-10T09:31:00;34.53;;;24.90;;
64643;SDS011;51056;50.330;7.914;2023-02-10T09:34:03;31.27;;;22.58;;
64643;SDS011;51056;50.330;7.914;2023-02-10T09:37:06;33.30;;;23.15;;
64643;SDS011;51056;50.330;7.914;2023-02-10T09:40:30;32.53;;;23.52;;
64643;SDS011;51056;50.330;7.914;2023-02-10T09:50:29;27.63;;;22.00;;
64643;SDS011;51056;50.330;7.914;2023-02-10T09:53:34;29.42;;;22.63;;
64643;SDS011;51056;50.330;7.914;2023-02-10T09:56:39;31.27;;;22.40;;
64643;SDS011;51056;50.330;7.914;2023-02-10T09:59:43;36.63;;;22.85;;
64643;SDS011;51056;50.330;7.914;2023-02-10T10:02:52;30.13;;;22.30;;
64643;SDS011;51056;50.330;7.914;2023-02-10T10:06:00;30.90;;;21.92;;
64643;SDS011;51056;50.330;7.914;2023-02-10T10:12:21;31.30;;;22.95;;
64643;SDS011;51056;50.330;7.914;2023-02-10T10:21:57;28.17;;;20.35;;
64643;SDS011;51056;50.330;7.914;2023-02-10T10:28:58;28.80;;;21.52;;
64643;SDS011;51056;50.330;7.914;2023-02-10T10:32:40;29.05;;;20.90;;
64643;SDS011;51056;50.330;7.914;2023-02-10T10:35:57;30.67;;;21.30;;
64643;SDS011;51056;50.330;7.914;2023-02-10T10:39:15;30.92;;;22.60;;
64643;SDS011;51056;50.330;7.914;2023-02-10T10:42:41;35.90;;;25.50;;
64643;SDS011;51056;50.330;7.914;2023-02-10T10:45:50;34.20;;;25.70;;
64643;SDS011;51056;50.330;7.914;2023-02-10T10:48:59;33.35;;;25.25;;
64643;SDS011;51056;50.330;7.914;2023-02-10T10:52:25;35.28;;;25.92;;
64643;SDS011;51056;50.330;7.914;2023-02-10T10:58:42;35.92;;;25.52;;
64643;SDS011;51056;50.330;7.914;2023-02-10T11:01:47;38.75;;;27.27;;
64643;SDS011;51056;50.330;7.914;2023-02-10T11:04:59;41.38;;;30.73;;
64643;SDS011;51056;50.330;7.914;2023-02-10T11:08:21;39.75;;;27.55;;
64643;SDS011;51056;50.330;7.914;2023-02-10T11:11:35;38.50;;;28.77;;
64643;SDS011;51056;50.330;7.914;2023-02-10T11:14:45;36.60;;;25.20;;
64643;SDS011;51056;50.330;7.914;2023-02-10T11:17:50;41.83;;;32.08;;
64643;SDS011;51056;50.330;7.914;2023-02-10T11:20:57;37.72;;;29.65;;
64643;SDS011;51056;50.330;7.914;2023-02-10T11:24:01;45.60;;;35.40;;
64643;SDS011;51056;50.330;7.914;2023-02-10T11:27:06;36.20;;;26.58;;
64643;SDS011;51056;50.330;7.914;2023-02-10T11:33:29;37.70;;;27.77;;
64643;SDS011;51056;50.330;7.914;2023-02-10T11:36:37;40.03;;;26.92;;
64643;SDS011;51056;50.330;7.914;2023-02-10T11:39:44;33.40;;;23.48;;
64643;SDS011;51056;50.330;7.914;2023-02-10T11:42:48;32.72;;;24.85;;
64643;SDS011;51056;50.330;7.914;2023-02-10T11:45:55;38.78;;;26.73;;
64643;SDS011;51056;50.330;7.914;2023-02-10T11:49:02;32.60;;;24.35;;
64643;SDS011;51056;50.330;7.914;2023-02-10T11:52:08;31.80;;;22.23;;
64643;SDS011;51056;50.330;7.914;2023-02-10T11:55:12;30.55;;;23.95;;
64643;SDS011;51056;50.330;7.914;2023-02-10T12:02:00;30.63;;;22.73;;
64643;SDS011;51056;50.330;7.914;2023-02-10T12:12:15;31.95;;;23.20;;
64643;SDS011;51056;50.330;7.914;2023-02-10T12:45:59;32.25;;;21.05;;
64643;SDS011;51056;50.330;7.914;2023-02-10T12:53:08;23.77;;;17.90;;
64643;SDS011;51056;50.330;7.914;2023-02-10T12:59:27;24.02;;;17.88;;
64643;SDS011;51056;50.330;7.914;2023-02-10T13:09:53;33.03;;;23.58;;
64643;SDS011;51056;50.330;7.914;2023-02-10T13:13:04;36.33;;;25.75;;
64643;SDS011;51056;50.330;7.914;2023-02-10T13:16:16;29.10;;;22.40;;
64643;SDS011;51056;50.330;7.914;2023-02-10T13:23:08;33.90;;;25.25;;
64643;SDS011;51056;50.330;7.914;2023-02-10T13:27:00;32.40;;;24.30;;
64643;SDS011;51056;50.330;7.914;2023-02-10T13:36:47;26.25;;;18.08;;
64643;SDS011;51056;50.330;7.914;2023-02-10T13:39:57;23.48;;;16.10;;
64643;SDS011;51056;50.330;7.914;2023-02-10T13:43:05;24.02;;;16.42;;
64643;SDS011;51056;50.330;7.914;2023-02-10T13:46:20;26.73;;;20.23;;
64643;SDS011;51056;50.330;7.914;2023-02-10T13:49:28;22.63;;;15.32;;
64643;SDS011;51056;50.330;7.914;2023-02-10T13:52:33;24.02;;;16.45;;
64643;SDS011;51056;50.330;7.914;2023-02-10T13:55:39;24.23;;;17.00;;
64643;SDS011;51056;50.330;7.914;2023-02-10T13:58:49;28.92;;;19.63;;
64643;SDS011;51056;50.330;7.914;2023-02-10T14:02:18;28.88;;;18.08;;
64643;SDS011;51056;50.330;7.914;2023-02-10T14:05:29;30.77;;;18.38;;
64643;SDS011;51056;50.330;7.914;2023-02-10T14:08:41;27.20;;;18.20;;
64643;SDS011;51056;50.330;7.914;2023-02-10T14:11:47;28.58;;;18.00;;
64643;SDS011;51056;50.330;7.914;2023-02-10T14:15:17;27.20;;;17.73;;
64643;SDS011;51056;50.330;7.914;2023-02-10T14:18:27;25.80;;;17.52;;
64643;SDS011;51056;50.330;7.914;2023-02-10T14:21:38;25.83;;;17.77;;
64643;SDS011;51056;50.330;7.914;2023-02-10T14:24:45;24.75;;;17.42;;
64643;SDS011;51056;50.330;7.914;2023-02-10T14:27:50;25.95;;;18.77;;
64643;SDS011;51056;50.330;7.914;2023-02-10T14:30:58;28.30;;;17.67;;
64643;SDS011;51056;50.330;7.914;2023-02-10T14:34:16;24.25;;;15.77;;
64643;SDS011;51056;50.330;7.914;2023-02-10T14:37:20;23.60;;;16.35;;
64643;SDS011;51056;50.330;7.914;2023-02-10T14:40:25;26.92;;;17.25;;
64643;SDS011;51056;50.330;7.914;2023-02-10T14:43:32;21.45;;;14.43;;
64643;SDS011;51056;50.330;7.914;2023-02-10T14:46:39;25.88;;;16.95;;
64643;SDS011;51056;50.330;7.914;2023-02-10T14:49:43;24.13;;;15.90;;
64643;SDS011;51056;50.330;7.914;2023-02-10T14:52:51;20.05;;;13.02;;
64643;SDS011;51056;50.330;7.914;2023-02-10T14:55:55;22.80;;;14.68;;
64643;SDS011;51056;50.330;7.914;2023-02-10T14:59:04;24.83;;;15.32;;
64643;SDS011;51056;50.330;7.914;2023-02-10T15:02:17;24.70;;;15.27;;
64643;SDS011;51056;50.330;7.914;2023-02-10T15:05:43;21.08;;;15.05;;
64643;SDS011;51056;50.330;7.914;2023-02-10T15:12:06;18.73;;;13.15;;
64643;SDS011;51056;50.330;7.914;2023-02-10T15:15:26;22.27;;;13.23;;
64643;SDS011;51056;50.330;7.914;2023-02-10T15:18:33;24.65;;;13.25;;
64643;SDS011;51056;50.330;7.914;2023-02-10T15:21:43;19.92;;;12.85;;
64643;SDS011;51056;50.330;7.914;2023-02-10T15:24:49;23.10;;;14.68;;
64643;SDS011;51056;50.330;7.914;2023-02-10T15:34:17;20.67;;;13.32;;
64643;SDS011;51056;50.330;7.914;2023-02-10T15:37:24;20.35;;;13.18;;
64643;SDS011;51056;50.330;7.914;2023-02-10T15:40:35;16.88;;;12.70;;
64643;SDS011;51056;50.330;7.914;2023-02-10T15:46:51;21.40;;;11.85;;
64643;SDS011;51056;50.330;7.914;2023-02-10T15:49:57;18.98;;;12.50;;
64643;SDS011;51056;50.330;7.914;2023-02-10T15:53:00;18.23;;;11.98;;
64643;SDS011;51056;50.330;7.914;2023-02-10T15:56:04;19.30;;;11.63;;
64643;SDS011;51056;50.330;7.914;2023-02-10T15:59:14;17.58;;;11.82;;
64643;SDS011;51056;50.330;7.914;2023-02-10T16:02:18;19.10;;;12.73;;
64643;SDS011;51056;50.330;7.914;2023-02-10T16:05:23;20.02;;;12.75;;
64643;SDS011;51056;50.330;7.914;2023-02-10T16:08:27;17.98;;;11.65;;
64643;SDS011;51056;50.330;7.914;2023-02-10T16:11:32;18.33;;;11.90;;
64643;SDS011;51056;50.330;7.914;2023-02-10T16:14:35;20.17;;;11.90;;
64643;SDS011;51056;50.330;7.914;2023-02-10T16:20:44;16.52;;;10.57;;
64643;SDS011;51056;50.330;7.914;2023-02-10T16:26:51;15.25;;;10.88;;
64643;SDS011;51056;50.330;7.914;2023-02-10T16:29:55;18.70;;;11.27;;
64643;SDS011;51056;50.330;7.914;2023-02-10T16:32:58;14.98;;;10.85;;
64643;SDS011;51056;50.330;7.914;2023-02-10T16:36:05;19.20;;;12.52;;
64643;SDS011;51056;50.330;7.914;2023-02-10T16:39:10;17.88;;;11.77;;
64643;SDS011;51056;50.330;7.914;2023-02-10T16:42:15;16.38;;;11.60;;
64643;SDS011;51056;50.330;7.914;2023-02-10T16:45:23;15.80;;;10.65;;
64643;SDS011;51056;50.330;7.914;2023-02-10T16:48:28;17.73;;;11.38;;
64643;SDS011;51056;50.330;7.914;2023-02-10T16:51:31;19.95;;;11.77;;
64643;SDS011;51056;50.330;7.914;2023-02-10T16:54:34;19.02;;;12.55;;
64643;SDS011;51056;50.330;7.914;2023-02-10T17:00:41;17.17;;;11.73;;
64643;SDS011;51056;50.330;7.914;2023-02-10T17:03:45;18.33;;;11.90;;
64643;SDS011;51056;50.330;7.914;2023-02-10T17:06:50;18.30;;;12.43;;
64643;SDS011;51056;50.330;7.914;2023-02-10T17:09:54;21.50;;;13.45;;
64643;SDS011;51056;50.330;7.914;2023-02-10T17:12:57;20.00;;;13.05;;
64643;SDS011;51056;50.330;7.914;2023-02-10T17:16:02;20.00;;;11.93;;
64643;SDS011;51056;50.330;7.914;2023-02-10T17:19:07;19.70;;;13.25;;
64643;SDS011;51056;50.330;7.914;2023-02-10T17:22:10;27.63;;;15.65;;
64643;SDS011;51056;50.330;7.914;2023-02-10T17:25:14;34.38;;;20.55;;
64643;SDS011;51056;50.330;7.914;2023-02-10T17:28:17;28.13;;;14.40;;
64643;SDS011;51056;50.330;7.914;2023-02-10T17:31:21;22.35;;;12.88;;
64643;SDS011;51056;50.330;7.914;2023-02-10T17:34:25;17.98;;;12.15;;
64643;SDS011;51056;50.330;7.914;2023-02-10T17:37:35;18.58;;;11.38;;
64643;SDS011;51056;50.330;7.914;2023-02-10T17:40:41;19.65;;;12.68;;
64643;SDS011;51056;50.330;7.914;2023-02-10T17:43:46;20.27;;;13.20;;
64643;SDS011;51056;50.330;7.914;2023-02-10T17:46:52;19.00;;;12.98;;
64643;SDS011;51056;50.330;7.914;2023-02-10T17:49:59;19.27;;;12.63;;
64643;SDS011;51056;50.330;7.914;2023-02-10T17:53:03;19.08;;;12.07;;
64643;SDS011;51056;50.330;7.914;2023-02-10T17:56:08;16.42;;;11.77;;
64643;SDS011;51056;50.330;7.914;2023-02-10T17:59:12;18.70;;;13.07;;
64643;SDS011;51056;50.330;7.914;2023-02-10T18:02:16;19.88;;;11.80;;
64643;SDS011;51056;50.330;7.914;2023-02-10T18:05:19;16.42;;;10.43;;
64643;SDS011;51056;50.330;7.914;2023-02-10T18:08:23;15.88;;;11.05;;
64643;SDS011;51056;50.330;7.914;2023-02-10T18:11:26;18.80;;;11.43;;
64643;SDS011;51056;50.330;7.914;2023-02-10T18:14:32;20.13;;;12.00;;
64643;SDS011;51056;50.330;7.914;2023-02-10T18:17:36;18.45;;;11.93;;
64643;SDS011;51056;50.330;7.914;2023-02-10T18:20:42;17.98;;;12.20;;
64643;SDS011;51056;50.330;7.914;2023-02-10T18:23:47;19.63;;;12.38;;
64643;SDS011;51056;50.330;7.914;2023-02-10T18:27:00;19.63;;;12.93;;
64643;SDS011;51056;50.330;7.914;2023-02-10T18:30:06;22.73;;;12.10;;
64643;SDS011;51056;50.330;7.914;2023-02-10T18:33:11;20.10;;;12.85;;
64643;SDS011;51056;50.330;7.914;2023-02-10T18:36:16;21.63;;;12.70;;
64643;SDS011;51056;50.330;7.914;2023-02-10T18:39:20;18.98;;;13.32;;
64643;SDS011;51056;50.330;7.914;2023-02-10T18:42:25;24.50;;;13.93;;
64643;SDS011;51056;50.330;7.914;2023-02-10T18:45:28;22.13;;;14.15;;
64643;SDS011;51056;50.330;7.914;2023-02-10T18:48:32;22.02;;;13.65;;
64643;SDS011;51056;50.330;7.914;2023-02-10T18:54:38;18.90;;;12.15;;
64643;SDS011;51056;50.330;7.914;2023-02-10T18:57:42;20.92;;;13.15;;
64643;SDS011;51056;50.330;7.914;2023-02-10T19:00:45;19.48;;;13.05;;
64643;SDS011;51056;50.330;7.914;2023-02-10T19:03:49;23.85;;;14.68;;
64643;SDS011;51056;50.330;7.914;2023-02-10T19:06:53;22.77;;;13.80;;
64643;SDS011;51056;50.330;7.914;2023-02-10T19:09:57;26.98;;;16.63;;
64643;SDS011;51056;50.330;7.914;2023-02-10T19:13:00;19.65;;;13.88;;
64643;SDS011;51056;50.330;7.914;2023-02-10T19:16:04;19.20;;;12.82;;
64643;SDS011;51056;50.330;7.914;2023-02-10T19:19:12;22.25;;;13.50;;
64643;SDS011;51056;50.330;7.914;2023-02-10T19:22:15;19.35;;;13.63;;
64643;SDS011;51056;50.330;7.914;2023-02-10T19:25:19;23.00;;;14.60;;
64643;SDS011;51056;50.330;7.914;2023-02-10T19:28:24;25.33;;;17.23;;
64643;SDS011;51056;50.330;7.914;2023-02-10T19:31:29;25.00;;;16.02;;
64643;SDS011;51056;50.330;7.914;2023-02-10T19:34:33;24.88;;;16.73;;
64643;SDS011;51056;50.330;7.914;2023-02-10T19:37:42;26.30;;;16.25;;
64643;SDS011;51056;50.330;7.914;2023-02-10T19:40:45;22.35;;;15.27;;
64643;SDS011;51056;50.330;7.914;2023-02-10T19:43:49;24.50;;;15.60;;
64643;SDS011;51056;50.330;7.914;2023-02-10T19:46:55;20.63;;;14.10;;
64643;SDS011;51056;50.330;7.914;2023-02-10T19:49:59;26.50;;;15.93;;
64643;SDS011;51056;50.330;7.914;2023-02-10T19:53:06;24.60;;;16.35;;
64643;SDS011;51056;50.330;7.914;2023-02-10T19:56:12;25.15;;;16.20;;
64643;SDS011;51056;50.330;7.914;2023-02-10T19:59:20;25.00;;;16.70;;
64643;SDS011;51056;50.330;7.914;2023-02-10T20:02:33;22.42;;;15.20;;
64643;SDS011;51056;50.330;7.914;2023-02-10T20:05:36;22.35;;;14.38;;
64643;SDS011;51056;50.330;7.914;2023-02-10T20:08:42;24.75;;;15.77;;
64643;SDS011;51056;50.330;7.914;2023-02-10T20:11:47;26.08;;;15.13;;
64643;SDS011;51056;50.330;7.914;2023-02-10T20:14:54;24.75;;;15.85;;
64643;SDS011;51056;50.330;7.914;2023-02-10T20:17:58;24.10;;;15.10;;
64643;SDS011;51056;50.330;7.914;2023-02-10T20:21:02;22.67;;;14.50;;
64643;SDS011;51056;50.330;7.914;2023-02-10T20:24:14;24.35;;;16.02;;
64643;SDS011;51056;50.330;7.914;2023-02-10T20:27:20;22.13;;;14.73;;
64643;SDS011;51056;50.330;7.914;2023-02-10T20:30:23;29.75;;;15.43;;
64643;SDS011;51056;50.330;7.914;2023-02-10T20:33:27;21.98;;;13.75;;
64643;SDS011;51056;50.330;7.914;2023-02-10T20:36:33;24.48;;;15.77;;
64643;SDS011;51056;50.330;7.914;2023-02-10T20:39:37;25.80;;;17.42;;
64643;SDS011;51056;50.330;7.914;2023-02-10T20:42:40;26.85;;;18.63;;
64643;SDS011;51056;50.330;7.914;2023-02-10T20:45:46;27.02;;;18.83;;
64643;SDS011;51056;50.330;7.914;2023-02-10T20:48:50;30.38;;;19.67;;
64643;SDS011;51056;50.330;7.914;2023-02-10T20:51:53;28.63;;;19.42;;
64643;SDS011;51056;50.330;7.914;2023-02-10T20:54:56;30.17;;;17.90;;